sensor_id;sensor_type;location;lat;lon;timestamp;pressure;altitude;pressure_sealevel;temperature;humidity
7532;BME280;3807;49.030;8.714;2023-10-31T00:00:04;97774.09;;;14.63;78.38
7532;BME280;3807;49.030;8.714;2023-10-31T00:02:29;97780.88;;;14.75;78.40
7532;BME280;3807;49.030;8.714;2023-10-31T00:04:54;97778.78;;;14.58;79.17
7532;BME280;3807;49.030;8.714;2023-10-31T00:07:20;97781.56;;;14.66;78.22
7532;BME280;3807;49.030;8.714;2023-10-31T00:09:45;97789.84;;;14.58;78.49
7532;BME280;3807;49.030;8.714;2023-10-31T00:12:10;97784.22;;;14.53;78.69
7532;BME280;3807;49.030;8.714;2023-10-31T00:14:36;97779.75;;;14.44;78.72
7532;BME280;3807;49.030;8.714;2023-10-31T00:17:01;97795.81;;;14.46;78.93
7532;BME280;3807;49.030;8.714;2023-10-31T00:19:27;97802.91;;;14.42;78.77
7532;BME280;3807;49.030;8.714;2023-10-31T00:21:52;97799.72;;;14.63;77.71
7532;BME280;3807;49.030;8.714;2023-10-31T00:24:17;97797.25;;;14.50;77.90
7532;BME280;3807;49.030;8.714;2023-10-31T00:26:43;97803.09;;;14.52;77.92
7532;BME280;3807;49.030;8.714;2023-10-31T00:29:08;97814.84;;;14.55;78.01
7532;BME280;3807;49.030;8.714;2023-10-31T00:31:33;97812.72;;;14.48;78.00
7532;BME280;3807;49.030;8.714;2023-10-31T00:34:06;97809.66;;;14.43;78.19
7532;BME280;3807;49.030;8.714;2023-10-31T00:36:31;97823.97;;;14.35;79.06
7532;BME280;3807;49.030;8.714;2023-10-31T00:38:56;97826.47;;;14.47;78.28
7532;BME280;3807;49.030;8.714;2023-10-31T00:41:22;97815.81;;;14.29;78.67
7532;BME280;3807;49.030;8.714;2023-10-31T00:43:47;97823.72;;;14.26;78.74
7532;BME280;3807;49.030;8.714;2023-10-31T00:46:12;97813.38;;;14.39;77.98
7532;BME280;3807;49.030;8.714;2023-10-31T00:48:38;97812.47;;;14.40;78.09
7532;BME280;3807;49.030;8.714;2023-10-31T00:51:04;97826.47;;;14.47;77.79
7532;BME280;3807;49.030;8.714;2023-10-31T00:53:29;97820.81;;;14.31;77.86
7532;BME280;3807;49.030;8.714;2023-10-31T00:55:55;97829.03;;;14.47;77.28
7532;BME280;3807;49.030;8.714;2023-10-31T00:58:20;97826.59;;;14.57;77.22
7532;BME280;3807;49.030;8.714;2023-10-31T01:00:45;97824.00;;;14.46;77.07
7532;BME280;3807;49.030;8.714;2023-10-31T01:03:11;97833.41;;;14.34;77.71
7532;BME280;3807;49.030;8.714;2023-10-31T01:05:36;97838.59;;;14.33;77.58
7532;BME280;3807;49.030;8.714;2023-10-31T01:08:02;97841.63;;;14.26;77.90
7532;BME280;3807;49.030;8.714;2023-10-31T01:10:27;97842.91;;;14.32;77.61
7532;BME280;3807;49.030;8.714;2023-10-31T01:12:52;97845.91;;;14.26;77.25
7532;BME280;3807;49.030;8.714;2023-10-31T01:15:18;97851.66;;;14.29;77.24
7532;BME280;3807;49.030;8.714;2023-10-31T01:17:43;97843.13;;;14.29;76.99
7532;BME280;3807;49.030;8.714;2023-10-31T01:20:09;97844.66;;;14.32;77.53
7532;BME280;3807;49.030;8.714;2023-10-31T01:22:35;97850.75;;;14.42;76.18
7532;BME280;3807;49.030;8.714;2023-10-31T01:25:01;97855.16;;;14.40;76.31
7532;BME280;3807;49.030;8.714;2023-10-31T01:27:26;97852.34;;;14.32;77.20
7532;BME280;3807;49.030;8.714;2023-10-31T01:29:51;97847.47;;;14.40;76.11
7532;BME280;3807;49.030;8.714;2023-10-31T01:32:17;97846.34;;;14.44;76.01
7532;BME280;3807;49.030;8.714;2023-10-31T01:34:43;97847.22;;;14.32;76.79
7532;BME280;3807;49.030;8.714;2023-10-31T01:37:08;97833.78;;;14.17;76.77
7532;BME280;3807;49.030;8.714;2023-10-31T01:39:36;97837.38;;;14.14;77.12
7532;BME280;3807;49.030;8.714;2023-10-31T01:42:02;97843.00;;;14.19;77.15
7532;BME280;3807;49.030;8.714;2023-10-31T01:44:27;97846.25;;;14.21;76.69
7532;BME280;3807;49.030;8.714;2023-10-31T01:46:52;97858.50;;;14.29;76.98
7532;BME280;3807;49.030;8.714;2023-10-31T01:49:18;97864.84;;;14.12;76.94
7532;BME280;3807;49.030;8.714;2023-10-31T01:51:45;97874.06;;;14.26;76.55
7532;BME280;3807;49.030;8.714;2023-10-31T01:54:12;97872.75;;;14.09;77.39
7532;BME280;3807;49.030;8.714;2023-10-31T01:56:39;97874.00;;;14.27;76.02
7532;BME280;3807;49.030;8.714;2023-10-31T01:59:05;97875.53;;;14.06;77.10
7532;BME280;3807;49.030;8.714;2023-10-31T02:01:32;97879.91;;;14.04;76.86
7532;BME280;3807;49.030;8.714;2023-10-31T02:03:57;97884.25;;;13.91;78.34
7532;BME280;3807;49.030;8.714;2023-10-31T02:06:24;97880.31;;;14.11;77.25
7532;BME280;3807;49.030;8.714;2023-10-31T02:08:49;97876.38;;;14.18;76.85
7532;BME280;3807;49.030;8.714;2023-10-31T02:11:15;97875.53;;;14.06;76.36
7532;BME280;3807;49.030;8.714;2023-10-31T02:13:40;97885.56;;;14.09;76.05
7532;BME280;3807;49.030;8.714;2023-10-31T02:16:06;97893.63;;;14.16;76.01
7532;BME280;3807;49.030;8.714;2023-10-31T02:18:32;97903.09;;;14.26;75.48
7532;BME280;3807;49.030;8.714;2023-10-31T02:20:58;97906.88;;;13.97;76.61
7532;BME280;3807;49.030;8.714;2023-10-31T02:23:24;97910.53;;;14.05;76.56
7532;BME280;3807;49.030;8.714;2023-10-31T02:25:49;97911.28;;;13.95;76.71
7532;BME280;3807;49.030;8.714;2023-10-31T02:28:14;97916.03;;;13.88;76.92
7532;BME280;3807;49.030;8.714;2023-10-31T02:30:40;97910.81;;;14.14;75.87
7532;BME280;3807;49.030;8.714;2023-10-31T02:33:06;97911.06;;;13.98;76.54
7532;BME280;3807;49.030;8.714;2023-10-31T02:35:31;97909.25;;;13.87;77.09
7532;BME280;3807;49.030;8.714;2023-10-31T02:37:57;97901.88;;;13.95;76.85
7532;BME280;3807;49.030;8.714;2023-10-31T02:40:23;97907.44;;;13.76;77.37
7532;BME280;3807;49.030;8.714;2023-10-31T02:42:48;97908.75;;;13.95;77.06
7532;BME280;3807;49.030;8.714;2023-10-31T02:45:14;97908.75;;;13.82;77.31
7532;BME280;3807;49.030;8.714;2023-10-31T02:47:39;97904.25;;;13.86;77.16
7532;BME280;3807;49.030;8.714;2023-10-31T02:50:05;97905.88;;;13.87;76.72
7532;BME280;3807;49.030;8.714;2023-10-31T02:52:31;97908.22;;;13.90;76.09
7532;BME280;3807;49.030;8.714;2023-10-31T02:54:56;97915.25;;;13.62;78.19
7532;BME280;3807;49.030;8.714;2023-10-31T02:57:21;97919.34;;;13.65;77.33
7532;BME280;3807;49.030;8.714;2023-10-31T02:59:47;97916.78;;;13.52;78.29
7532;BME280;3807;49.030;8.714;2023-10-31T03:02:12;97915.06;;;13.40;78.68
7532;BME280;3807;49.030;8.714;2023-10-31T03:04:38;97921.09;;;13.64;76.91
7532;BME280;3807;49.030;8.714;2023-10-31T03:07:04;97925.78;;;13.70;76.50
7532;BME280;3807;49.030;8.714;2023-10-31T03:09:29;97925.66;;;13.72;76.45
7532;BME280;3807;49.030;8.714;2023-10-31T03:11:54;97923.97;;;13.47;78.30
7532;BME280;3807;49.030;8.714;2023-10-31T03:14:20;97931.91;;;13.68;76.72
7532;BME280;3807;49.030;8.714;2023-10-31T03:16:45;97919.25;;;13.53;77.00
7532;BME280;3807;49.030;8.714;2023-10-31T03:19:11;97920.16;;;13.52;77.92
7532;BME280;3807;49.030;8.714;2023-10-31T03:21:36;97926.22;;;13.39;78.30
7532;BME280;3807;49.030;8.714;2023-10-31T03:24:02;97935.41;;;13.54;77.46
7532;BME280;3807;49.030;8.714;2023-10-31T03:26:27;97917.19;;;13.46;76.91
7532;BME280;3807;49.030;8.714;2023-10-31T03:28:52;97914.88;;;13.43;78.19
7532;BME280;3807;49.030;8.714;2023-10-31T03:31:22;97919.16;;;13.42;77.23
7532;BME280;3807;49.030;8.714;2023-10-31T03:33:48;97921.31;;;13.36;77.62
7532;BME280;3807;49.030;8.714;2023-10-31T03:36:13;97927.34;;;13.34;77.54
7532;BME280;3807;49.030;8.714;2023-10-31T03:38:38;97920.28;;;13.51;76.30
7532;BME280;3807;49.030;8.714;2023-10-31T03:41:04;97923.25;;;13.45;76.13
7532;BME280;3807;49.030;8.714;2023-10-31T03:43:29;97929.50;;;13.41;77.02
7532;BME280;3807;49.030;8.714;2023-10-31T03:45:55;97935.72;;;13.62;75.31
7532;BME280;3807;49.030;8.714;2023-10-31T03:48:20;97939.13;;;13.50;76.02
7532;BME280;3807;49.030;8.714;2023-10-31T03:50:46;97937.06;;;13.29;76.96
7532;BME280;3807;49.030;8.714;2023-10-31T03:53:11;97947.59;;;13.38;77.02
7532;BME280;3807;49.030;8.714;2023-10-31T03:55:37;97954.75;;;13.58;75.61
7532;BME280;3807;49.030;8.714;2023-10-31T03:58:02;97961.41;;;13.61;74.77
7532;BME280;3807;49.030;8.714;2023-10-31T04:00:28;97960.28;;;13.39;76.20
7532;BME280;3807;49.030;8.714;2023-10-31T04:02:53;97959.56;;;13.37;76.24
7532;BME280;3807;49.030;8.714;2023-10-31T04:05:19;97964.03;;;13.72;74.99
7532;BME280;3807;49.030;8.714;2023-10-31T04:07:47;97967.97;;;13.39;76.38
7532;BME280;3807;49.030;8.714;2023-10-31T04:10:13;97964.56;;;13.51;74.82
7532;BME280;3807;49.030;8.714;2023-10-31T04:12:39;97961.50;;;13.46;75.74
7532;BME280;3807;49.030;8.714;2023-10-31T04:15:04;97962.31;;;13.47;75.39
7532;BME280;3807;49.030;8.714;2023-10-31T04:17:30;97965.50;;;13.38;75.81
7532;BME280;3807;49.030;8.714;2023-10-31T04:19:56;97972.16;;;13.40;75.53
7532;BME280;3807;49.030;8.714;2023-10-31T04:22:21;97961.00;;;13.28;76.00
7532;BME280;3807;49.030;8.714;2023-10-31T04:24:46;97957.91;;;13.49;74.52
7532;BME280;3807;49.030;8.714;2023-10-31T04:27:12;97972.81;;;13.17;76.12
7532;BME280;3807;49.030;8.714;2023-10-31T04:29:37;97976.28;;;13.16;75.69
7532;BME280;3807;49.030;8.714;2023-10-31T04:32:03;97982.56;;;13.37;75.72
7532;BME280;3807;49.030;8.714;2023-10-31T04:34:28;97986.66;;;13.27;75.28
7532;BME280;3807;49.030;8.714;2023-10-31T04:36:54;97981.38;;;13.03;77.15
7532;BME280;3807;49.030;8.714;2023-10-31T04:39:19;97985.44;;;13.32;75.63
7532;BME280;3807;49.030;8.714;2023-10-31T04:41:45;97969.75;;;13.11;76.45
7532;BME280;3807;49.030;8.714;2023-10-31T04:44:10;97972.03;;;13.42;74.49
7532;BME280;3807;49.030;8.714;2023-10-31T04:46:35;97988.75;;;13.20;76.68
7532;BME280;3807;49.030;8.714;2023-10-31T04:49:01;97982.19;;;13.03;76.81
7532;BME280;3807;49.030;8.714;2023-10-31T04:51:26;97982.16;;;13.43;74.86
7532;BME280;3807;49.030;8.714;2023-10-31T04:53:52;97987.63;;;13.11;76.31
7532;BME280;3807;49.030;8.714;2023-10-31T04:56:17;97996.44;;;13.20;75.77
7532;BME280;3807;49.030;8.714;2023-10-31T04:58:43;97987.50;;;13.00;77.02
7532;BME280;3807;49.030;8.714;2023-10-31T05:01:10;97991.69;;;13.28;75.30
7532;BME280;3807;49.030;8.714;2023-10-31T05:03:36;97992.22;;;13.06;76.44
7532;BME280;3807;49.030;8.714;2023-10-31T05:06:01;97988.50;;;13.38;74.13
7532;BME280;3807;49.030;8.714;2023-10-31T05:08:27;97992.72;;;12.99;76.15
7532;BME280;3807;49.030;8.714;2023-10-31T05:10:52;97989.66;;;13.46;74.57
7532;BME280;3807;49.030;8.714;2023-10-31T05:13:18;97990.16;;;12.99;76.56
7532;BME280;3807;49.030;8.714;2023-10-31T05:15:43;97991.31;;;13.20;75.97
7532;BME280;3807;49.030;8.714;2023-10-31T05:18:08;97984.25;;;12.98;76.62
7532;BME280;3807;49.030;8.714;2023-10-31T05:20:34;97997.00;;;13.25;75.62
7532;BME280;3807;49.030;8.714;2023-10-31T05:22:59;97995.47;;;12.96;76.79
7532;BME280;3807;49.030;8.714;2023-10-31T05:25:25;98002.03;;;13.13;75.65
7532;BME280;3807;49.030;8.714;2023-10-31T05:27:50;98005.19;;;12.91;77.14
7532;BME280;3807;49.030;8.714;2023-10-31T05:30:15;98008.41;;;13.20;75.20
7532;BME280;3807;49.030;8.714;2023-10-31T05:32:41;98013.34;;;12.96;76.63
7532;BME280;3807;49.030;8.714;2023-10-31T05:35:06;98013.16;;;12.99;76.44
7532;BME280;3807;49.030;8.714;2023-10-31T05:37:31;98017.72;;;12.81;76.98
7532;BME280;3807;49.030;8.714;2023-10-31T05:39:57;98015.84;;;12.83;77.13
7532;BME280;3807;49.030;8.714;2023-10-31T05:42:22;98017.25;;;13.01;75.90
7532;BME280;3807;49.030;8.714;2023-10-31T05:44:48;98020.53;;;13.03;76.18
7532;BME280;3807;49.030;8.714;2023-10-31T05:47:14;98015.47;;;12.89;76.35
7532;BME280;3807;49.030;8.714;2023-10-31T05:49:39;98011.84;;;13.06;76.10
7532;BME280;3807;49.030;8.714;2023-10-31T05:52:05;98018.19;;;13.13;74.93
7532;BME280;3807;49.030;8.714;2023-10-31T05:54:30;98028.03;;;13.19;74.93
7532;BME280;3807;49.030;8.714;2023-10-31T05:56:55;98026.63;;;12.88;76.09
7532;BME280;3807;49.030;8.714;2023-10-31T05:59:21;98026.63;;;12.88;76.09
7532;BME280;3807;49.030;8.714;2023-10-31T06:01:46;98037.66;;;12.88;76.01
7532;BME280;3807;49.030;8.714;2023-10-31T06:04:11;98036.16;;;12.99;76.05
7532;BME280;3807;49.030;8.714;2023-10-31T06:06:37;98052.59;;;12.95;75.72
7532;BME280;3807;49.030;8.714;2023-10-31T06:09:04;98047.13;;;13.01;75.91
7532;BME280;3807;49.030;8.714;2023-10-31T06:11:29;98048.44;;;12.79;76.06
7532;BME280;3807;49.030;8.714;2023-10-31T06:13:55;98050.44;;;12.88;75.91
7532;BME280;3807;49.030;8.714;2023-10-31T06:16:20;98056.09;;;12.79;75.79
7532;BME280;3807;49.030;8.714;2023-10-31T06:18:46;98059.28;;;12.83;75.74
7532;BME280;3807;49.030;8.714;2023-10-31T06:21:11;98067.16;;;13.07;75.23
7532;BME280;3807;49.030;8.714;2023-10-31T06:23:37;98062.03;;;13.07;74.25
7532;BME280;3807;49.030;8.714;2023-10-31T06:26:03;98062.53;;;12.72;76.09
7532;BME280;3807;49.030;8.714;2023-10-31T06:28:29;98067.81;;;12.83;75.97
7532;BME280;3807;49.030;8.714;2023-10-31T06:30:54;98069.56;;;12.69;76.62
7532;BME280;3807;49.030;8.714;2023-10-31T06:33:19;98069.25;;;13.00;74.88
7532;BME280;3807;49.030;8.714;2023-10-31T06:35:45;98071.84;;;12.73;76.58
7532;BME280;3807;49.030;8.714;2023-10-31T06:38:10;98072.75;;;12.99;75.24
7532;BME280;3807;49.030;8.714;2023-10-31T06:40:36;98076.66;;;12.78;75.40
7532;BME280;3807;49.030;8.714;2023-10-31T06:43:01;98083.22;;;13.09;74.66
7532;BME280;3807;49.030;8.714;2023-10-31T06:45:27;98087.88;;;12.75;75.76
7532;BME280;3807;49.030;8.714;2023-10-31T06:47:52;98089.06;;;12.84;75.49
7532;BME280;3807;49.030;8.714;2023-10-31T06:50:18;98088.44;;;12.80;76.00
7532;BME280;3807;49.030;8.714;2023-10-31T06:52:43;98105.41;;;13.08;74.66
7532;BME280;3807;49.030;8.714;2023-10-31T06:55:09;98105.75;;;12.75;76.40
7532;BME280;3807;49.030;8.714;2023-10-31T06:57:34;98107.34;;;13.05;75.08
7532;BME280;3807;49.030;8.714;2023-10-31T06:59:59;98103.47;;;12.85;75.77
7532;BME280;3807;49.030;8.714;2023-10-31T07:02:25;98103.34;;;13.14;74.63
7532;BME280;3807;49.030;8.714;2023-10-31T07:04:51;98116.59;;;12.79;75.82
7532;BME280;3807;49.030;8.714;2023-10-31T07:07:16;98121.22;;;13.01;74.81
7532;BME280;3807;49.030;8.714;2023-10-31T07:09:41;98117.19;;;12.70;76.45
7532;BME280;3807;49.030;8.714;2023-10-31T07:12:07;98131.84;;;12.80;75.88
7532;BME280;3807;49.030;8.714;2023-10-31T07:14:34;98128.03;;;12.73;76.74
7532;BME280;3807;49.030;8.714;2023-10-31T07:17:00;98142.38;;;13.03;75.22
7532;BME280;3807;49.030;8.714;2023-10-31T07:19:25;98143.66;;;12.96;75.22
7532;BME280;3807;49.030;8.714;2023-10-31T07:21:50;98134.00;;;12.86;76.17
7532;BME280;3807;49.030;8.714;2023-10-31T07:24:16;98140.81;;;13.15;74.48
7532;BME280;3807;49.030;8.714;2023-10-31T07:26:41;98146.84;;;12.99;75.00
7532;BME280;3807;49.030;8.714;2023-10-31T07:29:06;98146.81;;;13.14;74.43
7532;BME280;3807;49.030;8.714;2023-10-31T07:31:32;98140.06;;;13.13;74.56
7532;BME280;3807;49.030;8.714;2023-10-31T07:33:58;98141.41;;;12.91;75.63
7532;BME280;3807;49.030;8.714;2023-10-31T07:36:23;98148.16;;;12.92;75.66
7532;BME280;3807;49.030;8.714;2023-10-31T07:38:48;98152.06;;;12.98;75.15
7532;BME280;3807;49.030;8.714;2023-10-31T07:41:14;98145.69;;;13.18;74.41
7532;BME280;3807;49.030;8.714;2023-10-31T07:43:39;98150.91;;;13.16;74.65
7532;BME280;3807;49.030;8.714;2023-10-31T07:46:04;98155.09;;;13.17;74.19
7532;BME280;3807;49.030;8.714;2023-10-31T07:48:30;98156.59;;;13.07;75.10
7532;BME280;3807;49.030;8.714;2023-10-31T07:50:56;98154.84;;;13.22;73.97
7532;BME280;3807;49.030;8.714;2023-10-31T07:53:21;98165.47;;;13.01;75.03
7532;BME280;3807;49.030;8.714;2023-10-31T07:55:47;98168.28;;;13.11;74.78
7532;BME280;3807;49.030;8.714;2023-10-31T07:58:12;98171.22;;;13.05;74.86
7532;BME280;3807;49.030;8.714;2023-10-31T08:00:38;98167.66;;;13.07;75.07
7532;BME280;3807;49.030;8.714;2023-10-31T08:03:04;98168.84;;;13.02;75.08
7532;BME280;3807;49.030;8.714;2023-10-31T08:05:30;98173.66;;;13.06;74.81
7532;BME280;3807;49.030;8.714;2023-10-31T08:07:55;98183.41;;;12.87;75.87
7532;BME280;3807;49.030;8.714;2023-10-31T08:10:20;98183.81;;;13.08;74.88
7532;BME280;3807;49.030;8.714;2023-10-31T08:12:46;98194.47;;;13.15;74.96
7532;BME280;3807;49.030;8.714;2023-10-31T08:15:11;98191.69;;;12.91;73.91
7532;BME280;3807;49.030;8.714;2023-10-31T08:17:36;98200.94;;;13.20;74.21
7532;BME280;3807;49.030;8.714;2023-10-31T08:20:02;98205.53;;;12.86;74.56
7532;BME280;3807;49.030;8.714;2023-10-31T08:22:30;98212.56;;;12.83;74.07
7532;BME280;3807;49.030;8.714;2023-10-31T08:24:56;98199.84;;;13.10;73.34
7532;BME280;3807;49.030;8.714;2023-10-31T08:27:21;98211.16;;;13.20;73.01
7532;BME280;3807;49.030;8.714;2023-10-31T08:29:46;98218.75;;;13.22;73.24
7532;BME280;3807;49.030;8.714;2023-10-31T08:32:12;98225.34;;;13.11;73.67
7532;BME280;3807;49.030;8.714;2023-10-31T08:34:37;98222.34;;;13.05;73.88
7532;BME280;3807;49.030;8.714;2023-10-31T08:37:03;98219.00;;;13.17;73.91
7532;BME280;3807;49.030;8.714;2023-10-31T08:39:28;98228.88;;;13.23;73.40
7532;BME280;3807;49.030;8.714;2023-10-31T08:41:55;98233.97;;;13.23;73.52
7532;BME280;3807;49.030;8.714;2023-10-31T08:44:21;98237.75;;;13.32;73.11
7532;BME280;3807;49.030;8.714;2023-10-31T08:46:47;98234.75;;;13.25;73.66
7532;BME280;3807;49.030;8.714;2023-10-31T08:49:13;98255.44;;;13.21;73.39
7532;BME280;3807;49.030;8.714;2023-10-31T08:51:39;98241.66;;;13.38;72.90
7532;BME280;3807;49.030;8.714;2023-10-31T08:54:04;98252.63;;;13.40;73.20
7532;BME280;3807;49.030;8.714;2023-10-31T08:56:30;98248.16;;;13.29;73.44
7532;BME280;3807;49.030;8.714;2023-10-31T08:58:55;98254.81;;;13.17;74.18
7532;BME280;3807;49.030;8.714;2023-10-31T09:01:20;98250.44;;;13.33;73.01
7532;BME280;3807;49.030;8.714;2023-10-31T09:03:46;98252.06;;;13.34;73.13
7532;BME280;3807;49.030;8.714;2023-10-31T09:06:11;98262.88;;;13.25;73.94
7532;BME280;3807;49.030;8.714;2023-10-31T09:08:37;98260.13;;;13.28;73.97
7532;BME280;3807;49.030;8.714;2023-10-31T09:11:04;98249.28;;;13.52;72.78
7532;BME280;3807;49.030;8.714;2023-10-31T09:13:29;98248.03;;;13.45;73.35
7532;BME280;3807;49.030;8.714;2023-10-31T09:15:56;98252.22;;;13.46;73.63
7532;BME280;3807;49.030;8.714;2023-10-31T09:18:21;98254.56;;;13.49;73.19
7532;BME280;3807;49.030;8.714;2023-10-31T09:20:46;98243.19;;;13.40;73.69
7532;BME280;3807;49.030;8.714;2023-10-31T09:23:12;98245.59;;;13.29;73.98
7532;BME280;3807;49.030;8.714;2023-10-31T09:25:37;98245.88;;;13.24;74.24
7532;BME280;3807;49.030;8.714;2023-10-31T09:28:02;98245.88;;;13.24;74.06
7532;BME280;3807;49.030;8.714;2023-10-31T09:30:28;98246.88;;;13.22;73.92
7532;BME280;3807;49.030;8.714;2023-10-31T09:32:53;98244.69;;;13.30;73.69
7532;BME280;3807;49.030;8.714;2023-10-31T09:35:18;98252.94;;;13.48;73.42
7532;BME280;3807;49.030;8.714;2023-10-31T09:37:44;98251.16;;;13.63;73.33
7532;BME280;3807;49.030;8.714;2023-10-31T09:40:13;98256.75;;;13.82;72.48
7532;BME280;3807;49.030;8.714;2023-10-31T09:42:39;98253.31;;;13.96;72.56
7532;BME280;3807;49.030;8.714;2023-10-31T09:45:05;98251.91;;;14.04;72.16
7532;BME280;3807;49.030;8.714;2023-10-31T09:47:31;98254.81;;;13.86;72.72
7532;BME280;3807;49.030;8.714;2023-10-31T09:49:58;98257.97;;;13.76;72.98
7532;BME280;3807;49.030;8.714;2023-10-31T09:52:23;98265.38;;;13.67;73.36
7532;BME280;3807;49.030;8.714;2023-10-31T09:54:49;98259.38;;;13.95;72.68
7532;BME280;3807;49.030;8.714;2023-10-31T09:57:17;98268.88;;;13.93;72.92
7532;BME280;3807;49.030;8.714;2023-10-31T09:59:43;98257.47;;;13.84;73.56
7532;BME280;3807;49.030;8.714;2023-10-31T10:02:08;98258.06;;;14.02;73.01
7532;BME280;3807;49.030;8.714;2023-10-31T10:04:34;98250.84;;;13.94;73.42
7532;BME280;3807;49.030;8.714;2023-10-31T10:07:03;98249.06;;;14.09;73.13
7532;BME280;3807;49.030;8.714;2023-10-31T10:09:29;98246.50;;;14.09;72.46
7532;BME280;3807;49.030;8.714;2023-10-31T10:11:55;98245.69;;;14.09;73.17
7532;BME280;3807;49.030;8.714;2023-10-31T10:14:24;98246.28;;;14.25;72.18
7532;BME280;3807;49.030;8.714;2023-10-31T10:16:50;98252.75;;;14.18;72.94
7532;BME280;3807;49.030;8.714;2023-10-31T10:19:16;98244.75;;;14.22;72.53
7532;BME280;3807;49.030;8.714;2023-10-31T10:21:58;98246.19;;;14.39;72.44
7532;BME280;3807;49.030;8.714;2023-10-31T10:24:24;98250.13;;;14.45;71.99
7532;BME280;3807;49.030;8.714;2023-10-31T10:26:51;98248.69;;;14.41;71.94
7532;BME280;3807;49.030;8.714;2023-10-31T10:29:17;98254.22;;;14.60;71.42
7532;BME280;3807;49.030;8.714;2023-10-31T10:31:43;98249.94;;;14.61;71.91
7532;BME280;3807;49.030;8.714;2023-10-31T10:34:10;98260.78;;;14.64;71.56
7532;BME280;3807;49.030;8.714;2023-10-31T10:36:35;98258.44;;;14.74;71.45
7532;BME280;3807;49.030;8.714;2023-10-31T10:39:01;98259.78;;;14.67;71.75
7532;BME280;3807;49.030;8.714;2023-10-31T10:41:27;98260.69;;;14.66;71.85
7532;BME280;3807;49.030;8.714;2023-10-31T10:43:57;98257.41;;;14.89;71.42
7532;BME280;3807;49.030;8.714;2023-10-31T10:46:28;98264.25;;;15.14;70.92
7532;BME280;3807;49.030;8.714;2023-10-31T10:48:58;98250.69;;;15.12;70.74
7532;BME280;3807;49.030;8.714;2023-10-31T10:51:29;98251.63;;;15.11;70.67
7532;BME280;3807;49.030;8.714;2023-10-31T10:54:05;98247.22;;;15.13;70.46
7532;BME280;3807;49.030;8.714;2023-10-31T10:56:38;98249.88;;;15.48;69.64
7532;BME280;3807;49.030;8.714;2023-10-31T10:59:11;98250.25;;;15.31;70.39
7532;BME280;3807;49.030;8.714;2023-10-31T11:01:38;98260.53;;;15.18;70.59
7532;BME280;3807;49.030;8.714;2023-10-31T11:04:05;98252.81;;;15.31;69.73
7532;BME280;3807;49.030;8.714;2023-10-31T11:06:31;98268.06;;;15.33;70.50
7532;BME280;3807;49.030;8.714;2023-10-31T11:08:57;98264.59;;;15.58;69.21
7532;BME280;3807;49.030;8.714;2023-10-31T11:11:24;98266.97;;;15.61;69.17
7532;BME280;3807;49.030;8.714;2023-10-31T11:13:50;98272.56;;;15.79;69.05
7532;BME280;3807;49.030;8.714;2023-10-31T11:16:51;98272.28;;;15.70;69.87
7532;BME280;3807;49.030;8.714;2023-10-31T11:19:15;98281.53;;;15.73;69.53
7532;BME280;3807;49.030;8.714;2023-10-31T11:22:13;98276.78;;;15.80;69.17
7532;BME280;3807;49.030;8.714;2023-10-31T11:24:38;98278.25;;;15.71;69.36
7532;BME280;3807;49.030;8.714;2023-10-31T11:27:05;98284.31;;;15.94;68.93
7532;BME280;3807;49.030;8.714;2023-10-31T11:29:32;98290.31;;;16.06;68.71
7532;BME280;3807;49.030;8.714;2023-10-31T11:31:57;98289.94;;;16.10;68.46
7532;BME280;3807;49.030;8.714;2023-10-31T11:34:27;98278.56;;;16.14;68.15
7532;BME280;3807;49.030;8.714;2023-10-31T11:36:52;98279.69;;;16.10;68.71
7532;BME280;3807;49.030;8.714;2023-10-31T11:39:19;98281.94;;;16.15;68.25
7532;BME280;3807;49.030;8.714;2023-10-31T11:41:55;98288.47;;;16.19;68.54
7532;BME280;3807;49.030;8.714;2023-10-31T11:44:26;98283.00;;;16.24;68.75
7532;BME280;3807;49.030;8.714;2023-10-31T11:46:52;98294.59;;;16.29;68.89
7532;BME280;3807;49.030;8.714;2023-10-31T11:49:46;98291.91;;;16.31;67.94
7532;BME280;3807;49.030;8.714;2023-10-31T11:52:17;98298.44;;;16.35;68.15
7532;BME280;3807;49.030;8.714;2023-10-31T11:54:43;98304.53;;;16.34;68.15
7532;BME280;3807;49.030;8.714;2023-10-31T11:57:09;98303.34;;;16.38;68.17
7532;BME280;3807;49.030;8.714;2023-10-31T11:59:38;98307.34;;;16.42;68.05
7532;BME280;3807;49.030;8.714;2023-10-31T12:02:16;98309.63;;;16.23;68.58
7532;BME280;3807;49.030;8.714;2023-10-31T12:04:41;98307.06;;;16.23;69.28
7532;BME280;3807;49.030;8.714;2023-10-31T12:07:08;98317.50;;;16.32;68.24
7532;BME280;3807;49.030;8.714;2023-10-31T12:09:45;98317.69;;;16.18;68.09
7532;BME280;3807;49.030;8.714;2023-10-31T12:12:10;98313.84;;;16.35;68.43
7532;BME280;3807;49.030;8.714;2023-10-31T12:14:36;98322.41;;;16.35;68.30
7532;BME280;3807;49.030;8.714;2023-10-31T12:17:04;98318.91;;;16.36;67.65
7532;BME280;3807;49.030;8.714;2023-10-31T12:19:29;98326.94;;;16.32;67.62
7532;BME280;3807;49.030;8.714;2023-10-31T12:21:55;98330.13;;;16.35;67.95
7532;BME280;3807;49.030;8.714;2023-10-31T12:24:21;98330.81;;;16.37;67.65
7532;BME280;3807;49.030;8.714;2023-10-31T12:26:46;98325.31;;;16.42;68.27
7532;BME280;3807;49.030;8.714;2023-10-31T12:29:19;98321.50;;;16.48;67.80
7532;BME280;3807;49.030;8.714;2023-10-31T12:31:47;98334.47;;;16.46;68.15
7532;BME280;3807;49.030;8.714;2023-10-31T12:34:16;98328.59;;;16.44;67.46
7532;BME280;3807;49.030;8.714;2023-10-31T12:36:43;98327.78;;;16.43;68.15
7532;BME280;3807;49.030;8.714;2023-10-31T12:39:11;98333.03;;;16.42;67.97
7532;BME280;3807;49.030;8.714;2023-10-31T12:41:37;98329.94;;;16.14;68.37
7532;BME280;3807;49.030;8.714;2023-10-31T12:44:03;98331.53;;;16.39;68.63
7532;BME280;3807;49.030;8.714;2023-10-31T12:46:31;98320.69;;;16.47;67.95
7532;BME280;3807;49.030;8.714;2023-10-31T12:48:59;98325.41;;;16.29;68.50
7532;BME280;3807;49.030;8.714;2023-10-31T12:51:25;98333.72;;;16.33;68.29
7532;BME280;3807;49.030;8.714;2023-10-31T12:53:51;98336.88;;;16.36;69.04
7532;BME280;3807;49.030;8.714;2023-10-31T12:59:03;98333.16;;;16.40;68.65
7532;BME280;3807;49.030;8.714;2023-10-31T13:01:28;98335.34;;;16.34;68.63
7532;BME280;3807;49.030;8.714;2023-10-31T13:03:54;98332.31;;;16.29;68.74
7532;BME280;3807;49.030;8.714;2023-10-31T13:06:19;98340.19;;;16.14;68.97
7532;BME280;3807;49.030;8.714;2023-10-31T13:08:45;98338.66;;;16.12;69.25
7532;BME280;3807;49.030;8.714;2023-10-31T13:11:11;98338.25;;;16.29;69.27
7532;BME280;3807;49.030;8.714;2023-10-31T13:13:36;98338.88;;;16.44;68.33
7532;BME280;3807;49.030;8.714;2023-10-31T13:16:02;98341.91;;;16.38;68.39
7532;BME280;3807;49.030;8.714;2023-10-31T13:18:28;98346.72;;;16.42;68.74